Robinsons Corner, California
Current Conditions -  °F | °C
As of 12:53 AM on Saturday 25 Oct 2014 (Local Time) from KOVE Reporting Station
Clear Clear  
Wind Chill: 62°   Ceiling: Unl
Heat Index: 62°   Visibility: 10mi
Dew Point: 52°   Wind: 13mph
Humidity: 70%   Direction: 130°SE
Pressure: 29.9"   Gusts: NA
Location:  39.5324°N, 121.648°W
Report Text: KOVE 250753Z AUTO 13011KT 10SM CLR 17/11 A2990 RMK AO2 SLP124 T01670111 402500106
Loading
Personal Weather Stations






























Interactive Weather Map
Tropical Storm Tracking
New forecast layout! Learn more

10-Day Weather Forecast

Advertisements
Track Severe Weather on mobile